sensor_id;sensor_type;location;lat;lon;timestamp;P1;P2;P0
50866;PMS7003;36839;51.946;21.002;2023-04-06T00:01:50;23.00;20.00;14.00
50866;PMS7003;36839;51.946;21.002;2023-04-06T00:04:17;20.00;18.00;14.00
50866;PMS7003;36839;51.946;21.002;2023-04-06T00:06:43;22.00;17.50;14.00
50866;PMS7003;36839;51.946;21.002;2023-04-06T00:09:10;21.00;19.00;14.00
50866;PMS7003;36839;51.946;21.002;2023-04-06T00:11:36;22.00;19.00;13.00
50866;PMS7003;36839;51.946;21.002;2023-04-06T00:14:03;18.50;15.00;12.50
50866;PMS7003;36839;51.946;21.002;2023-04-06T00:16:31;20.00;17.00;12.00
50866;PMS7003;36839;51.946;21.002;2023-04-06T00:19:01;17.00;16.00;11.00
50866;PMS7003;36839;51.946;21.002;2023-04-06T00:21:31;20.00;17.00;13.50
50866;PMS7003;36839;51.946;21.002;2023-04-06T00:24:02;23.00;19.00;13.00
50866;PMS7003;36839;51.946;21.002;2023-04-06T00:26:32;21.50;18.00;14.00
50866;PMS7003;36839;51.946;21.002;2023-04-06T00:29:01;20.00;16.00;12.00
50866;PMS7003;36839;51.946;21.002;2023-04-06T00:31:27;21.00;16.00;14.00
50866;PMS7003;36839;51.946;21.002;2023-04-06T00:33:53;20.00;15.50;13.00
50866;PMS7003;36839;51.946;21.002;2023-04-06T00:36:21;17.50;16.50;13.00
50866;PMS7003;36839;51.946;21.002;2023-04-06T00:38:48;20.00;16.00;11.00
50866;PMS7003;36839;51.946;21.002;2023-04-06T00:41:14;17.00;17.00;12.00
50866;PMS7003;36839;51.946;21.002;2023-04-06T00:43:44;17.00;14.00;10.00
50866;PMS7003;36839;51.946;21.002;2023-04-06T00:46:10;26.00;21.00;13.00
50866;PMS7003;36839;51.946;21.002;2023-04-06T00:48:40;21.00;16.00;13.00
50866;PMS7003;36839;51.946;21.002;2023-04-06T00:51:06;22.00;19.50;14.50
50866;PMS7003;36839;51.946;21.002;2023-04-06T00:53:34;19.00;17.00;14.00
50866;PMS7003;36839;51.946;21.002;2023-04-06T00:56:01;17.00;13.50;10.00
50866;PMS7003;36839;51.946;21.002;2023-04-06T00:58:30;20.33;18.00;13.33
50866;PMS7003;36839;51.946;21.002;2023-04-06T01:03:25;19.00;17.50;13.00
50866;PMS7003;36839;51.946;21.002;2023-04-06T01:05:51;19.00;15.00;11.00
50866;PMS7003;36839;51.946;21.002;2023-04-06T01:08:24;22.00;20.00;14.50
50866;PMS7003;36839;51.946;21.002;2023-04-06T01:10:52;19.50;17.50;13.00
50866;PMS7003;36839;51.946;21.002;2023-04-06T01:13:18;22.00;20.50;14.00
50866;PMS7003;36839;51.946;21.002;2023-04-06T01:15:45;19.50;16.00;12.50
50866;PMS7003;36839;51.946;21.002;2023-04-06T01:18:13;14.00;13.00;9.00
50866;PMS7003;36839;51.946;21.002;2023-04-06T01:20:39;16.00;15.00;11.00
50866;PMS7003;36839;51.946;21.002;2023-04-06T01:23:09;15.50;12.50;7.50
50866;PMS7003;36839;51.946;21.002;2023-04-06T01:25:36;18.50;17.50;13.00
50866;PMS7003;36839;51.946;21.002;2023-04-06T01:28:03;20.00;17.00;12.00
50866;PMS7003;36839;51.946;21.002;2023-04-06T01:30:31;16.00;15.00;12.00
50866;PMS7003;36839;51.946;21.002;2023-04-06T01:32:57;17.00;14.00;11.00
50866;PMS7003;36839;51.946;21.002;2023-04-06T01:35:26;18.00;13.00;9.67
50866;PMS7003;36839;51.946;21.002;2023-04-06T01:37:54;19.00;15.00;13.00
50866;PMS7003;36839;51.946;21.002;2023-04-06T01:40:21;15.00;15.00;11.00
50866;PMS7003;36839;51.946;21.002;2023-04-06T01:42:47;17.00;16.00;11.00
50866;PMS7003;36839;51.946;21.002;2023-04-06T01:45:14;18.00;16.00;13.00
50866;PMS7003;36839;51.946;21.002;2023-04-06T01:47:40;14.50;13.00;9.00
50866;PMS7003;36839;51.946;21.002;2023-04-06T01:50:08;13.00;13.00;10.00
50866;PMS7003;36839;51.946;21.002;2023-04-06T01:52:34;22.00;14.00;11.00
50866;PMS7003;36839;51.946;21.002;2023-04-06T01:55:02;19.00;16.00;12.00
50866;PMS7003;36839;51.946;21.002;2023-04-06T01:57:31;14.00;14.00;10.00
50866;PMS7003;36839;51.946;21.002;2023-04-06T01:59:58;17.00;16.00;12.00
50866;PMS7003;36839;51.946;21.002;2023-04-06T02:02:24;18.00;11.50;9.50
50866;PMS7003;36839;51.946;21.002;2023-04-06T02:04:50;14.50;14.00;11.00
50866;PMS7003;36839;51.946;21.002;2023-04-06T02:07:17;16.50;14.50;11.50
50866;PMS7003;36839;51.946;21.002;2023-04-06T02:09:47;18.00;12.50;9.00
50866;PMS7003;36839;51.946;21.002;2023-04-06T02:12:13;16.00;13.00;10.00
50866;PMS7003;36839;51.946;21.002;2023-04-06T02:14:40;20.00;14.00;10.00
50866;PMS7003;36839;51.946;21.002;2023-04-06T02:17:08;16.00;14.50;10.00
50866;PMS7003;36839;51.946;21.002;2023-04-06T02:19:36;18.50;16.50;12.50
50866;PMS7003;36839;51.946;21.002;2023-04-06T02:22:04;14.00;13.00;11.00
50866;PMS7003;36839;51.946;21.002;2023-04-06T02:24:31;21.00;15.00;10.00
50866;PMS7003;36839;51.946;21.002;2023-04-06T02:26:58;17.00;14.00;11.00
50866;PMS7003;36839;51.946;21.002;2023-04-06T02:29:27;15.50;14.50;10.50
50866;PMS7003;36839;51.946;21.002;2023-04-06T02:31:54;13.00;13.00;11.00
50866;PMS7003;36839;51.946;21.002;2023-04-06T02:34:21;18.00;14.50;10.50
50866;PMS7003;36839;51.946;21.002;2023-04-06T02:36:48;16.33;16.00;9.67
50866;PMS7003;36839;51.946;21.002;2023-04-06T02:39:14;14.00;10.00;9.00
50866;PMS7003;36839;51.946;21.002;2023-04-06T02:41:42;15.00;15.00;11.00
50866;PMS7003;36839;51.946;21.002;2023-04-06T02:44:08;16.00;14.00;12.00
50866;PMS7003;36839;51.946;21.002;2023-04-06T02:46:35;16.00;12.00;9.00
50866;PMS7003;36839;51.946;21.002;2023-04-06T02:49:02;18.00;15.00;11.00
50866;PMS7003;36839;51.946;21.002;2023-04-06T02:51:28;17.00;13.00;11.00
50866;PMS7003;36839;51.946;21.002;2023-04-06T02:53:55;25.00;14.00;10.00
50866;PMS7003;36839;51.946;21.002;2023-04-06T02:56:22;16.00;16.00;11.00
50866;PMS7003;36839;51.946;21.002;2023-04-06T02:58:52;26.00;18.00;12.00
50866;PMS7003;36839;51.946;21.002;2023-04-06T03:01:21;13.00;10.00;8.00
50866;PMS7003;36839;51.946;21.002;2023-04-06T03:03:47;16.50;13.50;10.00
50866;PMS7003;36839;51.946;21.002;2023-04-06T03:06:14;20.00;16.00;12.00
50866;PMS7003;36839;51.946;21.002;2023-04-06T03:08:43;21.00;14.50;11.00
50866;PMS7003;36839;51.946;21.002;2023-04-06T03:11:09;14.00;14.00;12.00
50866;PMS7003;36839;51.946;21.002;2023-04-06T03:13:37;14.00;13.00;11.00
50866;PMS7003;36839;51.946;21.002;2023-04-06T03:16:07;15.00;13.00;10.00
50866;PMS7003;36839;51.946;21.002;2023-04-06T03:18:34;10.00;10.00;7.00
50866;PMS7003;36839;51.946;21.002;2023-04-06T03:21:01;14.00;14.00;9.00
50866;PMS7003;36839;51.946;21.002;2023-04-06T03:23:28;12.00;12.00;8.00
50866;PMS7003;36839;51.946;21.002;2023-04-06T03:25:55;17.00;14.00;10.00
50866;PMS7003;36839;51.946;21.002;2023-04-06T03:28:22;11.00;11.00;7.00
50866;PMS7003;36839;51.946;21.002;2023-04-06T03:30:50;20.00;13.50;10.00
50866;PMS7003;36839;51.946;21.002;2023-04-06T03:33:17;21.00;17.00;13.00
50866;PMS7003;36839;51.946;21.002;2023-04-06T03:35:45;46.00;30.00;22.00
50866;PMS7003;36839;51.946;21.002;2023-04-06T03:38:12;34.00;25.00;17.00
50866;PMS7003;36839;51.946;21.002;2023-04-06T03:40:38;34.00;26.00;15.00
50866;PMS7003;36839;51.946;21.002;2023-04-06T03:43:05;34.00;26.00;18.00
50866;PMS7003;36839;51.946;21.002;2023-04-06T03:45:33;31.50;25.00;16.50
50866;PMS7003;36839;51.946;21.002;2023-04-06T03:48:01;22.00;19.00;13.00
50866;PMS7003;36839;51.946;21.002;2023-04-06T03:50:29;20.00;17.00;14.00
50866;PMS7003;36839;51.946;21.002;2023-04-06T03:52:57;17.00;14.00;11.00
50866;PMS7003;36839;51.946;21.002;2023-04-06T03:55:23;18.50;13.00;10.00
50866;PMS7003;36839;51.946;21.002;2023-04-06T03:57:50;12.00;12.00;8.00
50866;PMS7003;36839;51.946;21.002;2023-04-06T04:00:17;18.00;13.00;10.00
50866;PMS7003;36839;51.946;21.002;2023-04-06T04:02:55;15.00;14.00;10.50
50866;PMS7003;36839;51.946;21.002;2023-04-06T04:05:25;13.00;13.00;11.00
50866;PMS7003;36839;51.946;21.002;2023-04-06T04:07:53;13.00;11.50;8.00
50866;PMS7003;36839;51.946;21.002;2023-04-06T04:10:24;15.00;12.00;10.00
50866;PMS7003;36839;51.946;21.002;2023-04-06T04:12:51;42.50;28.00;20.00
50866;PMS7003;36839;51.946;21.002;2023-04-06T04:15:21;220.50;176.50;92.00
50866;PMS7003;36839;51.946;21.002;2023-04-06T04:17:49;142.00;123.00;79.00
50866;PMS7003;36839;51.946;21.002;2023-04-06T04:20:19;69.50;54.00;33.00
50866;PMS7003;36839;51.946;21.002;2023-04-06T04:25:15;93.50;69.00;40.00
50866;PMS7003;36839;51.946;21.002;2023-04-06T04:27:45;88.00;65.00;41.00
50866;PMS7003;36839;51.946;21.002;2023-04-06T04:30:13;26.50;24.50;18.00
50866;PMS7003;36839;51.946;21.002;2023-04-06T04:32:44;22.00;17.00;12.50
50866;PMS7003;36839;51.946;21.002;2023-04-06T04:35:11;16.00;13.00;11.00
50866;PMS7003;36839;51.946;21.002;2023-04-06T04:37:40;23.00;20.00;15.00
50866;PMS7003;36839;51.946;21.002;2023-04-06T04:40:15;24.67;22.00;16.00
50866;PMS7003;36839;51.946;21.002;2023-04-06T04:42:43;29.00;27.00;21.00
50866;PMS7003;36839;51.946;21.002;2023-04-06T04:45:12;23.00;20.00;14.50
50866;PMS7003;36839;51.946;21.002;2023-04-06T04:47:42;23.00;21.00;16.00
50866;PMS7003;36839;51.946;21.002;2023-04-06T04:50:10;26.00;21.50;19.00
50866;PMS7003;36839;51.946;21.002;2023-04-06T04:52:37;28.00;25.00;18.00
50866;PMS7003;36839;51.946;21.002;2023-04-06T04:55:04;27.50;26.50;19.00
50866;PMS7003;36839;51.946;21.002;2023-04-06T04:57:31;29.00;23.00;17.00
50866;PMS7003;36839;51.946;21.002;2023-04-06T05:00:00;26.00;21.00;14.00
50866;PMS7003;36839;51.946;21.002;2023-04-06T05:02:32;26.00;26.00;17.00
50866;PMS7003;36839;51.946;21.002;2023-04-06T05:05:00;31.00;22.00;18.00
50866;PMS7003;36839;51.946;21.002;2023-04-06T05:07:30;41.00;36.00;24.00
50866;PMS7003;36839;51.946;21.002;2023-04-06T05:09:56;42.00;37.00;25.00
50866;PMS7003;36839;51.946;21.002;2023-04-06T05:12:23;32.00;29.50;19.50
50866;PMS7003;36839;51.946;21.002;2023-04-06T05:14:51;30.50;25.00;17.50
50866;PMS7003;36839;51.946;21.002;2023-04-06T05:17:21;35.00;31.00;21.00
50866;PMS7003;36839;51.946;21.002;2023-04-06T05:19:48;29.00;22.00;19.00
50866;PMS7003;36839;51.946;21.002;2023-04-06T05:22:14;31.50;27.00;17.50
50866;PMS7003;36839;51.946;21.002;2023-04-06T05:24:44;26.00;24.00;16.50
50866;PMS7003;36839;51.946;21.002;2023-04-06T05:27:10;27.00;25.00;18.00
50866;PMS7003;36839;51.946;21.002;2023-04-06T05:29:38;21.00;19.50;15.00
50866;PMS7003;36839;51.946;21.002;2023-04-06T05:32:05;23.00;23.00;16.00
50866;PMS7003;36839;51.946;21.002;2023-04-06T05:34:33;23.00;19.00;13.50
50866;PMS7003;36839;51.946;21.002;2023-04-06T05:37:01;21.00;16.00;12.00
50866;PMS7003;36839;51.946;21.002;2023-04-06T05:39:28;25.00;21.00;14.00
50866;PMS7003;36839;51.946;21.002;2023-04-06T05:41:55;23.00;20.00;13.00
50866;PMS7003;36839;51.946;21.002;2023-04-06T05:44:22;25.00;18.00;14.50
50866;PMS7003;36839;51.946;21.002;2023-04-06T05:46:48;25.00;20.00;16.00
50866;PMS7003;36839;51.946;21.002;2023-04-06T05:49:16;17.00;13.00;10.00
50866;PMS7003;36839;51.946;21.002;2023-04-06T05:51:42;17.50;17.00;12.50
50866;PMS7003;36839;51.946;21.002;2023-04-06T05:54:09;15.00;14.00;12.00
50866;PMS7003;36839;51.946;21.002;2023-04-06T05:56:37;18.00;18.00;12.00
50866;PMS7003;36839;51.946;21.002;2023-04-06T05:59:05;18.00;16.50;9.00
50866;PMS7003;36839;51.946;21.002;2023-04-06T06:01:40;31.50;20.00;14.50
50866;PMS7003;36839;51.946;21.002;2023-04-06T06:04:07;21.00;20.00;14.00
50866;PMS7003;36839;51.946;21.002;2023-04-06T06:06:35;22.00;14.50;10.00
50866;PMS7003;36839;51.946;21.002;2023-04-06T06:09:05;18.00;15.00;12.00
50866;PMS7003;36839;51.946;21.002;2023-04-06T06:11:31;14.00;14.00;9.00
50866;PMS7003;36839;51.946;21.002;2023-04-06T06:13:59;25.00;21.00;15.00
50866;PMS7003;36839;51.946;21.002;2023-04-06T06:16:29;14.50;13.00;8.50
50866;PMS7003;36839;51.946;21.002;2023-04-06T06:18:56;13.50;10.00;9.00
50866;PMS7003;36839;51.946;21.002;2023-04-06T06:21:24;5.00;5.00;4.00
50866;PMS7003;36839;51.946;21.002;2023-04-06T06:23:51;11.00;9.00;8.00
50866;PMS7003;36839;51.946;21.002;2023-04-06T06:26:30;14.00;9.00;5.00
50866;PMS7003;36839;51.946;21.002;2023-04-06T06:28:58;10.00;10.00;8.50
50866;PMS7003;36839;51.946;21.002;2023-04-06T06:34:40;12.00;9.50;8.00
50866;PMS7003;36839;51.946;21.002;2023-04-06T06:39:35;15.50;9.00;6.50
50866;PMS7003;36839;51.946;21.002;2023-04-06T06:42:06;10.50;9.00;7.50
50866;PMS7003;36839;51.946;21.002;2023-04-06T06:44:35;10.00;8.00;5.00
50866;PMS7003;36839;51.946;21.002;2023-04-06T06:47:02;11.50;10.50;8.50
50866;PMS7003;36839;51.946;21.002;2023-04-06T06:49:30;11.00;7.00;5.00
50866;PMS7003;36839;51.946;21.002;2023-04-06T06:51:58;13.50;9.00;8.00
50866;PMS7003;36839;51.946;21.002;2023-04-06T06:54:27;9.00;9.00;8.00
50866;PMS7003;36839;51.946;21.002;2023-04-06T06:56:56;10.50;8.00;6.50
50866;PMS7003;36839;51.946;21.002;2023-04-06T06:59:33;8.00;8.00;5.00
50866;PMS7003;36839;51.946;21.002;2023-04-06T07:02:02;19.50;9.50;7.50
50866;PMS7003;36839;51.946;21.002;2023-04-06T07:04:30;11.00;10.33;6.33
50866;PMS7003;36839;51.946;21.002;2023-04-06T07:06:56;10.50;9.00;5.00
50866;PMS7003;36839;51.946;21.002;2023-04-06T07:09:23;9.00;9.00;8.00
50866;PMS7003;36839;51.946;21.002;2023-04-06T07:11:54;9.50;9.00;6.00
50866;PMS7003;36839;51.946;21.002;2023-04-06T07:14:26;18.00;10.00;7.00
50866;PMS7003;36839;51.946;21.002;2023-04-06T07:16:54;11.00;7.50;5.00
50866;PMS7003;36839;51.946;21.002;2023-04-06T07:19:21;13.00;11.50;8.00
50866;PMS7003;36839;51.946;21.002;2023-04-06T07:21:50;13.00;10.00;9.00
50866;PMS7003;36839;51.946;21.002;2023-04-06T07:24:19;13.50;11.00;8.50
50866;PMS7003;36839;51.946;21.002;2023-04-06T07:29:16;8.00;8.00;5.00
50866;PMS7003;36839;51.946;21.002;2023-04-06T07:31:44;13.00;11.00;8.00
50866;PMS7003;36839;51.946;21.002;2023-04-06T07:34:13;5.00;5.00;5.00
50866;PMS7003;36839;51.946;21.002;2023-04-06T07:36:58;16.00;11.00;7.67
50866;PMS7003;36839;51.946;21.002;2023-04-06T07:39:33;10.00;9.00;6.00
50866;PMS7003;36839;51.946;21.002;2023-04-06T07:42:04;8.00;6.00;4.00
50866;PMS7003;36839;51.946;21.002;2023-04-06T07:44:33;11.50;8.00;6.50
50866;PMS7003;36839;51.946;21.002;2023-04-06T07:47:00;7.00;7.00;6.00
50866;PMS7003;36839;51.946;21.002;2023-04-06T07:49:26;4.00;4.00;3.00
50866;PMS7003;36839;51.946;21.002;2023-04-06T07:51:55;8.00;8.00;6.00
50866;PMS7003;36839;51.946;21.002;2023-04-06T07:54:23;9.00;9.00;6.00
50866;PMS7003;36839;51.946;21.002;2023-04-06T07:56:51;11.00;9.00;7.00
50866;PMS7003;36839;51.946;21.002;2023-04-06T07:59:20;7.00;7.00;6.00
50866;PMS7003;36839;51.946;21.002;2023-04-06T08:01:49;8.50;7.50;5.50
50866;PMS7003;36839;51.946;21.002;2023-04-06T08:04:18;7.00;7.00;5.50
50866;PMS7003;36839;51.946;21.002;2023-04-06T08:06:45;7.00;7.00;6.00
50866;PMS7003;36839;51.946;21.002;2023-04-06T08:09:12;10.00;8.00;7.00
50866;PMS7003;36839;51.946;21.002;2023-04-06T08:11:38;8.00;8.00;7.00
50866;PMS7003;36839;51.946;21.002;2023-04-06T08:14:06;10.50;9.00;8.00
50866;PMS7003;36839;51.946;21.002;2023-04-06T08:16:34;10.00;8.00;5.00
50866;PMS7003;36839;51.946;21.002;2023-04-06T08:21:29;9.00;9.00;6.00
50866;PMS7003;36839;51.946;21.002;2023-04-06T08:23:56;13.00;7.50;5.00
50866;PMS7003;36839;51.946;21.002;2023-04-06T08:26:26;7.00;7.00;7.00
50866;PMS7003;36839;51.946;21.002;2023-04-06T08:28:55;13.00;8.50;6.00
50866;PMS7003;36839;51.946;21.002;2023-04-06T08:31:29;10.00;8.00;5.00
50866;PMS7003;36839;51.946;21.002;2023-04-06T08:33:58;14.00;9.00;6.00
50866;PMS7003;36839;51.946;21.002;2023-04-06T08:36:24;10.00;10.00;8.00
50866;PMS7003;36839;51.946;21.002;2023-04-06T08:38:51;11.00;9.00;7.50
50866;PMS7003;36839;51.946;21.002;2023-04-06T08:41:18;12.00;10.00;8.00
50866;PMS7003;36839;51.946;21.002;2023-04-06T08:43:47;12.00;10.00;7.00
50866;PMS7003;36839;51.946;21.002;2023-04-06T08:46:32;11.00;9.00;8.00
50866;PMS7003;36839;51.946;21.002;2023-04-06T08:49:02;10.50;8.00;5.00
50866;PMS7003;36839;51.946;21.002;2023-04-06T08:51:29;12.00;10.00;8.00
50866;PMS7003;36839;51.946;21.002;2023-04-06T08:53:57;12.00;9.00;5.00
50866;PMS7003;36839;51.946;21.002;2023-04-06T08:56:28;8.00;8.00;5.00
50866;PMS7003;36839;51.946;21.002;2023-04-06T08:58:56;4.00;4.00;4.00
50866;PMS7003;36839;51.946;21.002;2023-04-06T09:01:25;13.00;10.00;7.50
50866;PMS7003;36839;51.946;21.002;2023-04-06T09:03:55;11.00;10.00;8.00
50866;PMS7003;36839;51.946;21.002;2023-04-06T09:06:24;13.00;9.00;8.00
50866;PMS7003;36839;51.946;21.002;2023-04-06T09:08:55;11.00;10.00;8.00
50866;PMS7003;36839;51.946;21.002;2023-04-06T09:11:23;8.50;7.00;5.00
50866;PMS7003;36839;51.946;21.002;2023-04-06T09:13:54;13.00;11.00;9.00
50866;PMS7003;36839;51.946;21.002;2023-04-06T09:16:22;12.50;11.00;9.00
50866;PMS7003;36839;51.946;21.002;2023-04-06T09:18:49;14.00;12.00;9.33
50866;PMS7003;36839;51.946;21.002;2023-04-06T09:21:19;12.50;12.00;9.50
50866;PMS7003;36839;51.946;21.002;2023-04-06T09:23:57;15.00;14.00;10.00
50866;PMS7003;36839;51.946;21.002;2023-04-06T09:26:26;11.00;9.00;7.50
50866;PMS7003;36839;51.946;21.002;2023-04-06T09:28:56;11.00;11.00;9.00
50866;PMS7003;36839;51.946;21.002;2023-04-06T09:31:28;12.00;11.00;6.00
50866;PMS7003;36839;51.946;21.002;2023-04-06T09:33:59;15.00;14.00;9.00
50866;PMS7003;36839;51.946;21.002;2023-04-06T09:36:36;10.50;10.00;9.00
50866;PMS7003;36839;51.946;21.002;2023-04-06T09:39:07;12.00;10.00;8.00
50866;PMS7003;36839;51.946;21.002;2023-04-06T09:41:34;12.00;9.50;8.50
50866;PMS7003;36839;51.946;21.002;2023-04-06T09:44:05;10.00;10.00;7.00
50866;PMS7003;36839;51.946;21.002;2023-04-06T09:46:38;17.00;11.00;10.00
50866;PMS7003;36839;51.946;21.002;2023-04-06T09:49:10;13.00;12.00;8.00
50866;PMS7003;36839;51.946;21.002;2023-04-06T09:51:40;13.00;11.00;9.00
50866;PMS7003;36839;51.946;21.002;2023-04-06T09:54:10;13.50;9.00;8.00
50866;PMS7003;36839;51.946;21.002;2023-04-06T09:56:45;15.00;9.50;8.00
50866;PMS7003;36839;51.946;21.002;2023-04-06T09:59:18;24.00;19.00;14.00
50866;PMS7003;36839;51.946;21.002;2023-04-06T10:02:06;16.00;14.50;11.00
50866;PMS7003;36839;51.946;21.002;2023-04-06T10:05:09;19.00;16.00;11.00
50866;PMS7003;36839;51.946;21.002;2023-04-06T10:07:44;17.50;13.50;10.50
50866;PMS7003;36839;51.946;21.002;2023-04-06T10:10:11;22.00;15.00;13.00
50866;PMS7003;36839;51.946;21.002;2023-04-06T10:12:44;14.00;11.00;9.00
50866;PMS7003;36839;51.946;21.002;2023-04-06T10:15:12;32.50;25.50;18.50
50866;PMS7003;36839;51.946;21.002;2023-04-06T10:17:50;12.00;9.00;5.00
50866;PMS7003;36839;51.946;21.002;2023-04-06T10:23:26;22.00;17.00;13.00
50866;PMS7003;36839;51.946;21.002;2023-04-06T10:25:57;33.50;25.50;18.50
50866;PMS7003;36839;51.946;21.002;2023-04-06T10:28:26;25.50;22.00;14.00
50866;PMS7003;36839;51.946;21.002;2023-04-06T10:31:01;28.00;23.00;16.00
50866;PMS7003;36839;51.946;21.002;2023-04-06T10:33:31;23.50;22.50;16.00
50866;PMS7003;36839;51.946;21.002;2023-04-06T10:38:45;24.00;17.00;16.00
50866;PMS7003;36839;51.946;21.002;2023-04-06T10:41:12;22.00;20.00;16.00
50866;PMS7003;36839;51.946;21.002;2023-04-06T10:43:40;20.00;19.00;14.00
50866;PMS7003;36839;51.946;21.002;2023-04-06T10:46:08;22.00;18.00;12.00
50866;PMS7003;36839;51.946;21.002;2023-04-06T10:48:45;28.00;28.00;21.00
50866;PMS7003;36839;51.946;21.002;2023-04-06T10:51:15;31.00;28.00;21.00
50866;PMS7003;36839;51.946;21.002;2023-04-06T10:53:46;37.00;32.50;23.00
50866;PMS7003;36839;51.946;21.002;2023-04-06T10:56:15;18.00;18.00;12.00
50866;PMS7003;36839;51.946;21.002;2023-04-06T10:58:48;26.00;19.00;15.00
50866;PMS7003;36839;51.946;21.002;2023-04-06T11:01:19;28.00;23.50;17.00
50866;PMS7003;36839;51.946;21.002;2023-04-06T11:03:51;37.00;33.00;23.00
50866;PMS7003;36839;51.946;21.002;2023-04-06T11:06:25;47.00;36.00;24.00
50866;PMS7003;36839;51.946;21.002;2023-04-06T11:08:53;45.00;32.00;17.00
50866;PMS7003;36839;51.946;21.002;2023-04-06T11:11:23;32.00;19.00;14.00
50866;PMS7003;36839;51.946;21.002;2023-04-06T11:13:52;58.00;44.00;27.00
50866;PMS7003;36839;51.946;21.002;2023-04-06T11:18:58;20.00;18.00;14.00
50866;PMS7003;36839;51.946;21.002;2023-04-06T11:24:13;32.00;29.00;20.00
50866;PMS7003;36839;51.946;21.002;2023-04-06T11:29:19;19.00;17.00;12.50
50866;PMS7003;36839;51.946;21.002;2023-04-06T11:32:05;16.50;16.00;11.50
50866;PMS7003;36839;51.946;21.002;2023-04-06T11:34:34;25.33;17.00;11.33
50866;PMS7003;36839;51.946;21.002;2023-04-06T11:37:07;32.00;27.00;19.00
50866;PMS7003;36839;51.946;21.002;2023-04-06T11:39:38;19.00;18.00;13.00
50866;PMS7003;36839;51.946;21.002;2023-04-06T11:42:07;21.00;18.00;13.00
50866;PMS7003;36839;51.946;21.002;2023-04-06T11:44:35;23.00;17.50;13.00
50866;PMS7003;36839;51.946;21.002;2023-04-06T11:47:15;20.00;17.00;12.00
50866;PMS7003;36839;51.946;21.002;2023-04-06T11:49:42;21.00;18.00;13.00
50866;PMS7003;36839;51.946;21.002;2023-04-06T11:52:14;19.00;18.00;13.00
50866;PMS7003;36839;51.946;21.002;2023-04-06T11:54:46;24.00;21.50;18.00
50866;PMS7003;36839;51.946;21.002;2023-04-06T11:57:14;23.00;20.50;15.00
50866;PMS7003;36839;51.946;21.002;2023-04-06T11:59:44;20.00;19.00;13.00
50866;PMS7003;36839;51.946;21.002;2023-04-06T12:02:14;23.00;20.00;14.00
50866;PMS7003;36839;51.946;21.002;2023-04-06T12:04:40;16.00;16.00;12.00
50866;PMS7003;36839;51.946;21.002;2023-04-06T12:07:07;20.67;20.67;16.00
50866;PMS7003;36839;51.946;21.002;2023-04-06T12:09:35;18.00;17.00;11.00
50866;PMS7003;36839;51.946;21.002;2023-04-06T12:12:08;29.00;23.00;16.00
50866;PMS7003;36839;51.946;21.002;2023-04-06T12:14:34;49.00;39.00;25.00
50866;PMS7003;36839;51.946;21.002;2023-04-06T12:17:05;23.00;19.00;16.00
50866;PMS7003;36839;51.946;21.002;2023-04-06T12:22:02;21.00;19.00;16.00
50866;PMS7003;36839;51.946;21.002;2023-04-06T12:24:30;22.00;21.50;17.00
50866;PMS7003;36839;51.946;21.002;2023-04-06T12:26:57;23.33;21.67;15.00
50866;PMS7003;36839;51.946;21.002;2023-04-06T12:29:25;21.00;18.00;13.00
50866;PMS7003;36839;51.946;21.002;2023-04-06T12:31:55;29.00;23.50;16.50
50866;PMS7003;36839;51.946;21.002;2023-04-06T12:34:22;27.50;22.00;17.00
50866;PMS7003;36839;51.946;21.002;2023-04-06T12:36:51;26.00;23.00;17.00
50866;PMS7003;36839;51.946;21.002;2023-04-06T12:39:21;24.00;18.00;13.00
50866;PMS7003;36839;51.946;21.002;2023-04-06T12:41:48;24.00;19.00;13.50
50866;PMS7003;36839;51.946;21.002;2023-04-06T12:44:15;24.00;20.50;15.50
50866;PMS7003;36839;51.946;21.002;2023-04-06T12:46:43;23.67;21.00;16.67
50866;PMS7003;36839;51.946;21.002;2023-04-06T12:49:13;23.00;21.00;16.00
50866;PMS7003;36839;51.946;21.002;2023-04-06T12:51:42;30.00;23.00;16.00
50866;PMS7003;36839;51.946;21.002;2023-04-06T12:54:11;38.00;23.50;18.00
50866;PMS7003;36839;51.946;21.002;2023-04-06T12:56:37;35.00;28.00;18.00
50866;PMS7003;36839;51.946;21.002;2023-04-06T12:59:06;28.00;22.00;17.00
50866;PMS7003;36839;51.946;21.002;2023-04-06T13:01:45;30.00;22.00;18.00
50866;PMS7003;36839;51.946;21.002;2023-04-06T13:04:12;32.00;23.00;19.00
50866;PMS7003;36839;51.946;21.002;2023-04-06T13:06:38;29.00;25.00;20.00
50866;PMS7003;36839;51.946;21.002;2023-04-06T13:09:06;20.00;18.50;16.00
50866;PMS7003;36839;51.946;21.002;2023-04-06T13:11:33;27.50;23.00;16.50
50866;PMS7003;36839;51.946;21.002;2023-04-06T13:14:01;19.00;15.33;8.67
50866;PMS7003;36839;51.946;21.002;2023-04-06T13:16:28;26.00;25.00;16.50
50866;PMS7003;36839;51.946;21.002;2023-04-06T13:18:55;22.00;20.00;16.00
50866;PMS7003;36839;51.946;21.002;2023-04-06T13:21:26;28.00;22.00;15.50
50866;PMS7003;36839;51.946;21.002;2023-04-06T13:23:56;19.50;18.00;12.50
50866;PMS7003;36839;51.946;21.002;2023-04-06T13:26:25;18.00;16.00;13.00
50866;PMS7003;36839;51.946;21.002;2023-04-06T13:28:51;21.50;18.00;12.50
50866;PMS7003;36839;51.946;21.002;2023-04-06T13:31:23;22.50;21.50;15.50
50866;PMS7003;36839;51.946;21.002;2023-04-06T13:33:52;36.50;22.50;15.00
50866;PMS7003;36839;51.946;21.002;2023-04-06T13:36:18;23.00;22.00;19.00
50866;PMS7003;36839;51.946;21.002;2023-04-06T13:38:47;22.00;19.00;16.00
50866;PMS7003;36839;51.946;21.002;2023-04-06T13:41:19;21.00;19.00;15.00
50866;PMS7003;36839;51.946;21.002;2023-04-06T13:43:49;24.00;22.00;17.00
50866;PMS7003;36839;51.946;21.002;2023-04-06T13:46:18;23.00;19.00;15.00
50866;PMS7003;36839;51.946;21.002;2023-04-06T13:48:44;19.00;17.50;10.00
50866;PMS7003;36839;51.946;21.002;2023-04-06T13:51:13;18.67;17.33;13.67
50866;PMS7003;36839;51.946;21.002;2023-04-06T13:53:41;18.00;16.00;13.00
50866;PMS7003;36839;51.946;21.002;2023-04-06T13:56:09;21.00;19.00;14.50
50866;PMS7003;36839;51.946;21.002;2023-04-06T13:58:39;20.50;20.00;13.00
50866;PMS7003;36839;51.946;21.002;2023-04-06T14:01:06;17.00;17.00;14.00
50866;PMS7003;36839;51.946;21.002;2023-04-06T14:03:35;23.00;23.00;15.50
50866;PMS7003;36839;51.946;21.002;2023-04-06T14:06:11;20.50;19.00;14.00
50866;PMS7003;36839;51.946;21.002;2023-04-06T14:08:39;22.00;18.00;14.00
50866;PMS7003;36839;51.946;21.002;2023-04-06T14:11:12;21.00;20.00;15.00
50866;PMS7003;36839;51.946;21.002;2023-04-06T14:13:40;22.67;17.67;12.33
50866;PMS7003;36839;51.946;21.002;2023-04-06T14:16:07;21.00;21.00;13.50
50866;PMS7003;36839;51.946;21.002;2023-04-06T14:18:33;22.00;17.00;11.00
50866;PMS7003;36839;51.946;21.002;2023-04-06T14:21:00;30.00;17.00;12.00